Current Conditions
Clear
Conditions



Pressure
1026.92 (hPa) - 30.32 (inHG)
Visibility

10.0 (km) - 6.2 (miles)
   Temperature
16  °C
61°F
8  °C
Dewpoint
59  %
 Humidity
   Wind Speed
14  km/h
8  kts
9  mph
4.0  m/s
   Wind Direction
 170°
Due South
   Airport Data
YMEN
Location Melbourne Essendon 7 km (4.35 mi)
Metar :YMEN 210500Z AUTO 17008KT 9999 // NCD 16/08 Q1027
Mon 21st October 15:00 pm
   Raw Metar Info
Raw METAR is the most common format in the world for the transmission of observational weather data. It is highly standardized through the International Civil Aviation Organization (ICAO), which allows it to be understood throughout most of the world.
   API Info
Data Provided by
https://www.checkwx.com/weather/YMEN
   © Info
CSS/SVG/PHP scripts were developed by weather34.com for use in the weather34 template © 2015-2019

Guide Info provided by Metar-Wikipedia